Time,TemperatureF,DewpointF,PressureIn,WindDirection,WindDirectionDegrees,WindSpeedMPH,WindSpeedGustMPH,Humidity,HourlyPrecipIn,Conditions,Clouds,dailyrainin,SoftwareType,DateUTC
2013-11-09 00:00:00,42.0,-99.9,30.06,SSE,150,17.0,-999.0,-999,-99.99,,,-99.99,,2013-11-09 00:00:00,
2013-11-09 00:22:00,42.0,-99.9,30.06,SSE,150,17.0,-999.0,-999,-99.99,,,-99.99,,2013-11-09 00:22:00,
2013-11-09 00:32:00,42.0,-99.9,30.06,SSE,150,17.0,-999.0,-999,-99.99,,,-99.99,,2013-11-09 00:32:00,
2013-11-09 00:42:00,42.0,-99.9,30.06,SSE,150,17.0,-999.0,-999,-99.99,,,-99.99,,2013-11-09 00:42:00,
2013-11-09 00:52:00,42.0,-99.9,30.06,SSE,150,17.0,-999.0,-999,-99.99,,,-99.99,,2013-11-09 00:52:00,
2013-11-09 04:00:00,46.0,-99.9,29.99,SSE,150,22.0,-999.0,-999,-99.99,,,-99.99,,2013-11-09 04:00:00,
2013-11-09 04:43:00,46.0,-99.9,29.99,SSE,150,22.0,-999.0,-999,-99.99,,,-99.99,,2013-11-09 04:43:00,
2013-11-09 04:54:00,46.0,-99.9,29.99,SSE,150,22.0,-999.0,-999,-99.99,,,-99.99,,2013-11-09 04:54:00,
2013-11-09 12:00:00,48.0,-99.9,29.66,SSW,210,30.0,-999.0,-999,-99.99,,,-99.99,,2013-11-09 12:00:00,
2013-11-09 12:22:00,48.0,-99.9,29.66,SSW,210,30.0,-999.0,-999,-99.99,,,-99.99,,2013-11-09 12:22:00,
2013-11-09 12:32:00,48.0,-99.9,29.66,SSW,210,30.0,-999.0,-999,-99.99,,,-99.99,,2013-11-09 12:32:00,
2013-11-09 12:42:00,48.0,-99.9,29.66,SSW,210,30.0,-999.0,-999,-99.99,,,-99.99,,2013-11-09 12:42:00,
2013-11-09 12:52:00,48.0,-99.9,29.66,SSW,210,30.0,-999.0,-999,-99.99,,,-99.99,,2013-11-09 12:52:00,
2013-11-09 16:24:00,46.0,-99.9,29.65,WSW,240,21.0,-999.0,-999,-99.99,,,-99.99,,2013-11-09 16:24:00,
2013-11-09 16:33:00,46.0,-99.9,29.65,WSW,240,21.0,-999.0,-999,-99.99,,,-99.99,,2013-11-09 16:33:00,
2013-11-09 16:43:00,46.0,-99.9,29.65,WSW,240,21.0,-999.0,-999,-99.99,,,-99.99,,2013-11-09 16:43:00,
2013-11-09 21:00:00,-999.0,-99.9,29.70,West,270,32.0,-999.0,-999,-99.99,,,-99.99,,2013-11-09 21:00:00,
2013-11-09 21:22:00,-999.0,-99.9,29.70,West,270,32.0,-999.0,-999,-99.99,,,-99.99,,2013-11-09 21:22:00,
2013-11-09 21:34:00,-999.0,-99.9,29.70,West,270,32.0,-999.0,-999,-99.99,,,-99.99,,2013-11-09 21:34:00,
2013-11-09 21:44:00,-999.0,-99.9,29.70,West,270,32.0,-999.0,-999,-99.99,,,-99.99,,2013-11-09 21:44:00,
2013-11-09 21:54:00,-999.0,-99.9,29.70,West,270,32.0,-999.0,-999,-99.99,,,-99.99,,2013-11-09 21:54:00,
2013-11-09 22:00:00,47.0,-99.9,20.70,West,270,37.0,-999.0,-999,-99.99,,,-99.99,,2013-11-09 22:00:00,
2013-11-09 22:43:00,47.0,-99.9,20.70,West,270,37.0,-999.0,-999,-99.99,,,-99.99,,2013-11-09 22:43:00,
2013-11-09 22:54:00,47.0,-99.9,20.70,West,270,37.0,-999.0,-999,-99.99,,,-99.99,,2013-11-09 22:54:00,
2013-11-09 23:00:00,43.0,-99.9,29.70,West,270,37.0,-999.0,-999,-99.99,,,-99.99,,2013-11-09 23:00:00,
2013-11-09 23:42:00,43.0,-99.9,29.70,West,270,37.0,-999.0,-999,-99.99,,,-99.99,,2013-11-09 23:42:00,
2013-11-09 23:53:00,43.0,-99.9,29.70,West,270,37.0,-999.0,-999,-99.99,,,-99.99,,2013-11-09 23:53:00,